GCFV/FUE METAR and TAF weather

Enter ICAO airport designator
Station Type Date Time Source
GCFV METAR 2019/10/21 23:30 UTC NOAA

GCFV 212330Z AUTO 35011KT 9999 NCD 20/12 Q1019


Station Type Date Time Source
GCFV Decoded METAR 2019/10/21 23:30 UTC NOAA

Fuerteventura / Aeropuerto, Spain (GCFV) 28-27N 013-52W 30M
Oct 21, 2019 - 07:30 PM EDT / 2019.10.21 2330 UTC
Wind: from the N (350 degrees) at 13 MPH (11 KT):0
Visibility: greater than 7 mile(s):0
Temperature: 68 F (20 C)
Dew Point: 53 F (12 C)
Relative Humidity: 59%
Pressure (altimeter): 30.09 in. Hg (1019 hPa)
ob: GCFV 212330Z AUTO 35011KT 9999 NCD 20/12 Q1019
cycle: 23

Station Type Date Time Source
GCFV TAF 2019/10/21 21:30 UTC NOAA

TAF GCFV 212000Z 2121/2221 35009KT 9999 SCT035 TX25/2214Z TN18/2205Z PROB30
TEMPO 2211/2215 05012KT

Example: see airport list